sensor_id;sensor_type;location;lat;lon;timestamp;noise_LAeq;noise_LA_min;noise_LA_max;noise_LA01;noise_LA95
71026;Laerm;62048;52.312;4.858;2022-08-19T00:00:06;33.53;31.35;36.16;;
71026;Laerm;62048;52.312;4.858;2022-08-19T00:00:18;33.75;31.14;39.45;;
71026;Laerm;62048;52.312;4.858;2022-08-19T00:00:29;33.84;30.75;36.97;;
71026;Laerm;62048;52.312;4.858;2022-08-19T00:00:39;33.86;31.22;36.17;;
71026;Laerm;62048;52.312;4.858;2022-08-19T00:00:49;33.62;31.56;37.46;;
71026;Laerm;62048;52.312;4.858;2022-08-19T00:01:00;33.98;31.76;36.07;;
71026;Laerm;62048;52.312;4.858;2022-08-19T00:01:10;33.80;30.82;36.70;;
71026;Laerm;62048;52.312;4.858;2022-08-19T00:01:22;33.00;30.87;35.46;;
71026;Laerm;62048;52.312;4.858;2022-08-19T00:01:33;32.83;30.42;36.08;;
71026;Laerm;62048;52.312;4.858;2022-08-19T00:01:45;32.55;30.42;34.92;;
71026;Laerm;62048;52.312;4.858;2022-08-19T00:01:56;33.06;30.77;35.47;;
71026;Laerm;62048;52.312;4.858;2022-08-19T00:02:07;33.63;31.09;36.36;;
71026;Laerm;62048;52.312;4.858;2022-08-19T00:02:17;34.16;31.87;37.08;;
71026;Laerm;62048;52.312;4.858;2022-08-19T00:02:28;34.18;32.32;36.03;;
71026;Laerm;62048;52.312;4.858;2022-08-19T00:02:38;34.54;31.86;36.84;;
71026;Laerm;62048;52.312;4.858;2022-08-19T00:02:48;34.67;32.65;37.08;;
71026;Laerm;62048;52.312;4.858;2022-08-19T00:02:59;34.75;32.64;37.47;;
71026;Laerm;62048;52.312;4.858;2022-08-19T00:03:09;34.62;32.01;37.91;;
71026;Laerm;62048;52.312;4.858;2022-08-19T00:03:19;35.15;31.30;39.23;;
71026;Laerm;62048;52.312;4.858;2022-08-19T00:03:30;34.80;31.97;37.91;;
71026;Laerm;62048;52.312;4.858;2022-08-19T00:03:40;34.62;32.08;37.82;;
71026;Laerm;62048;52.312;4.858;2022-08-19T00:03:50;33.55;31.55;35.21;;
71026;Laerm;62048;52.312;4.858;2022-08-19T00:04:03;33.44;31.39;35.45;;
71026;Laerm;62048;52.312;4.858;2022-08-19T00:04:15;34.22;31.74;37.34;;
71026;Laerm;62048;52.312;4.858;2022-08-19T00:04:27;33.71;31.37;36.09;;
71026;Laerm;62048;52.312;4.858;2022-08-19T00:04:37;33.32;31.41;38.36;;
71026;Laerm;62048;52.312;4.858;2022-08-19T00:04:48;32.97;30.62;35.42;;
71026;Laerm;62048;52.312;4.858;2022-08-19T00:05:03;33.26;30.23;36.22;;
71026;Laerm;62048;52.312;4.858;2022-08-19T00:05:14;33.33;31.20;37.05;;
71026;Laerm;62048;52.312;4.858;2022-08-19T00:05:25;33.21;30.99;36.10;;
71026;Laerm;62048;52.312;4.858;2022-08-19T00:05:35;33.20;30.86;35.52;;
71026;Laerm;62048;52.312;4.858;2022-08-19T00:05:46;32.82;30.32;35.41;;
71026;Laerm;62048;52.312;4.858;2022-08-19T00:05:56;32.59;30.23;35.80;;
71026;Laerm;62048;52.312;4.858;2022-08-19T00:06:06;33.49;29.87;38.83;;
71026;Laerm;62048;52.312;4.858;2022-08-19T00:06:17;32.50;29.76;35.05;;
71026;Laerm;62048;52.312;4.858;2022-08-19T00:06:28;33.04;30.90;38.09;;
71026;Laerm;62048;52.312;4.858;2022-08-19T00:06:40;34.74;32.47;37.88;;
71026;Laerm;62048;52.312;4.858;2022-08-19T00:06:50;34.32;32.57;36.20;;
71026;Laerm;62048;52.312;4.858;2022-08-19T00:07:02;34.68;32.14;37.92;;
71026;Laerm;62048;52.312;4.858;2022-08-19T00:07:12;34.59;32.63;36.92;;
71026;Laerm;62048;52.312;4.858;2022-08-19T00:07:23;34.27;32.25;36.51;;
71026;Laerm;62048;52.312;4.858;2022-08-19T00:07:33;33.08;31.20;35.31;;
71026;Laerm;62048;52.312;4.858;2022-08-19T00:07:43;33.30;30.44;37.22;;
71026;Laerm;62048;52.312;4.858;2022-08-19T00:07:54;31.37;29.96;32.85;;
71026;Laerm;62048;52.312;4.858;2022-08-19T00:08:04;31.78;29.69;33.65;;
71026;Laerm;62048;52.312;4.858;2022-08-19T00:08:15;31.33;29.24;38.66;;
71026;Laerm;62048;52.312;4.858;2022-08-19T00:08:25;31.49;29.88;34.20;;
71026;Laerm;62048;52.312;4.858;2022-08-19T00:08:35;30.82;29.29;36.03;;
71026;Laerm;62048;52.312;4.858;2022-08-19T00:08:46;30.96;28.99;34.11;;
71026;Laerm;62048;52.312;4.858;2022-08-19T00:08:56;31.07;29.36;33.57;;
71026;Laerm;62048;52.312;4.858;2022-08-19T00:09:08;31.25;29.92;37.57;;
71026;Laerm;62048;52.312;4.858;2022-08-19T00:09:19;31.95;30.34;33.85;;
71026;Laerm;62048;52.312;4.858;2022-08-19T00:09:30;32.60;30.35;37.20;;
71026;Laerm;62048;52.312;4.858;2022-08-19T00:09:40;32.31;30.65;34.43;;
71026;Laerm;62048;52.312;4.858;2022-08-19T00:09:51;33.86;31.57;36.90;;
71026;Laerm;62048;52.312;4.858;2022-08-19T00:10:02;35.03;30.70;38.34;;
71026;Laerm;62048;52.312;4.858;2022-08-19T00:10:13;33.75;31.87;36.48;;
71026;Laerm;62048;52.312;4.858;2022-08-19T00:10:25;34.48;32.11;37.46;;
71026;Laerm;62048;52.312;4.858;2022-08-19T00:10:35;35.19;32.81;38.83;;
71026;Laerm;62048;52.312;4.858;2022-08-19T00:10:45;35.58;32.58;38.64;;
71026;Laerm;62048;52.312;4.858;2022-08-19T00:10:57;36.71;34.36;40.38;;
71026;Laerm;62048;52.312;4.858;2022-08-19T00:11:08;35.29;32.94;39.24;;
71026;Laerm;62048;52.312;4.858;2022-08-19T00:11:18;35.02;32.94;37.04;;
71026;Laerm;62048;52.312;4.858;2022-08-19T00:11:29;34.42;32.19;36.85;;
71026;Laerm;62048;52.312;4.858;2022-08-19T00:11:40;35.05;32.21;43.36;;
71026;Laerm;62048;52.312;4.858;2022-08-19T00:11:51;36.14;33.47;39.14;;
71026;Laerm;62048;52.312;4.858;2022-08-19T00:12:02;35.60;33.13;38.74;;
71026;Laerm;62048;52.312;4.858;2022-08-19T00:12:13;37.28;34.55;40.80;;
71026;Laerm;62048;52.312;4.858;2022-08-19T00:12:23;36.83;34.27;40.42;;
71026;Laerm;62048;52.312;4.858;2022-08-19T00:12:33;37.83;35.63;40.45;;
71026;Laerm;62048;52.312;4.858;2022-08-19T00:12:44;36.87;34.62;39.21;;
71026;Laerm;62048;52.312;4.858;2022-08-19T00:12:54;38.79;35.66;41.99;;
71026;Laerm;62048;52.312;4.858;2022-08-19T00:13:05;38.31;35.23;41.52;;
71026;Laerm;62048;52.312;4.858;2022-08-19T00:13:15;38.58;35.15;41.28;;
71026;Laerm;62048;52.312;4.858;2022-08-19T00:13:26;40.62;37.19;45.11;;
71026;Laerm;62048;52.312;4.858;2022-08-19T00:13:38;38.87;35.69;44.09;;
71026;Laerm;62048;52.312;4.858;2022-08-19T00:13:49;40.45;36.58;43.66;;
71026;Laerm;62048;52.312;4.858;2022-08-19T00:14:00;39.48;36.10;43.69;;
71026;Laerm;62048;52.312;4.858;2022-08-19T00:14:11;39.46;35.37;43.48;;
71026;Laerm;62048;52.312;4.858;2022-08-19T00:14:22;39.23;35.15;42.63;;
71026;Laerm;62048;52.312;4.858;2022-08-19T00:14:33;39.40;35.92;42.97;;
71026;Laerm;62048;52.312;4.858;2022-08-19T00:14:43;37.97;35.18;41.14;;
71026;Laerm;62048;52.312;4.858;2022-08-19T00:14:53;38.50;36.01;41.27;;
71026;Laerm;62048;52.312;4.858;2022-08-19T00:15:05;37.12;34.20;40.74;;
71026;Laerm;62048;52.312;4.858;2022-08-19T00:15:18;37.26;33.65;41.53;;
71026;Laerm;62048;52.312;4.858;2022-08-19T00:15:28;38.45;33.67;43.61;;
71026;Laerm;62048;52.312;4.858;2022-08-19T00:15:39;38.62;33.86;42.27;;
71026;Laerm;62048;52.312;4.858;2022-08-19T00:15:49;36.03;32.76;40.46;;
71026;Laerm;62048;52.312;4.858;2022-08-19T00:16:00;34.98;32.12;37.97;;
71026;Laerm;62048;52.312;4.858;2022-08-19T00:16:10;34.45;32.00;37.18;;
71026;Laerm;62048;52.312;4.858;2022-08-19T00:16:21;33.77;31.93;36.78;;
71026;Laerm;62048;52.312;4.858;2022-08-19T00:16:31;34.83;32.07;38.62;;
71026;Laerm;62048;52.312;4.858;2022-08-19T00:16:43;36.39;33.24;39.81;;
71026;Laerm;62048;52.312;4.858;2022-08-19T00:16:54;35.11;32.80;37.66;;
71026;Laerm;62048;52.312;4.858;2022-08-19T00:17:05;34.65;31.60;40.88;;
71026;Laerm;62048;52.312;4.858;2022-08-19T00:17:16;36.94;33.34;41.33;;
71026;Laerm;62048;52.312;4.858;2022-08-19T00:17:26;39.99;34.76;45.58;;
71026;Laerm;62048;52.312;4.858;2022-08-19T00:17:38;37.78;33.76;42.35;;
71026;Laerm;62048;52.312;4.858;2022-08-19T00:17:48;37.21;33.80;42.77;;
71026;Laerm;62048;52.312;4.858;2022-08-19T00:17:59;35.88;32.86;39.64;;
71026;Laerm;62048;52.312;4.858;2022-08-19T00:18:09;35.18;32.87;38.16;;
71026;Laerm;62048;52.312;4.858;2022-08-19T00:18:20;35.38;32.75;38.39;;
71026;Laerm;62048;52.312;4.858;2022-08-19T00:18:30;36.95;33.50;39.82;;
71026;Laerm;62048;52.312;4.858;2022-08-19T00:18:40;36.74;32.54;40.64;;
71026;Laerm;62048;52.312;4.858;2022-08-19T00:18:51;35.09;31.59;38.34;;
71026;Laerm;62048;52.312;4.858;2022-08-19T00:19:02;35.28;32.10;39.60;;
71026;Laerm;62048;52.312;4.858;2022-08-19T00:19:12;36.33;31.20;40.26;;
71026;Laerm;62048;52.312;4.858;2022-08-19T00:19:23;32.59;30.37;35.43;;
71026;Laerm;62048;52.312;4.858;2022-08-19T00:19:34;33.63;31.45;37.31;;
71026;Laerm;62048;52.312;4.858;2022-08-19T00:19:45;33.33;31.21;36.54;;
71026;Laerm;62048;52.312;4.858;2022-08-19T00:19:55;32.52;30.83;38.03;;
71026;Laerm;62048;52.312;4.858;2022-08-19T00:20:06;33.19;30.94;37.18;;
71026;Laerm;62048;52.312;4.858;2022-08-19T00:20:18;33.95;31.55;36.63;;
71026;Laerm;62048;52.312;4.858;2022-08-19T00:20:28;36.30;32.90;40.45;;
71026;Laerm;62048;52.312;4.858;2022-08-19T00:20:39;35.69;32.90;39.39;;
71026;Laerm;62048;52.312;4.858;2022-08-19T00:20:50;35.63;33.23;38.41;;
71026;Laerm;62048;52.312;4.858;2022-08-19T00:21:00;37.09;33.92;40.45;;
71026;Laerm;62048;52.312;4.858;2022-08-19T00:21:11;36.05;33.65;39.11;;
71026;Laerm;62048;52.312;4.858;2022-08-19T00:21:22;36.52;33.63;39.69;;
71026;Laerm;62048;52.312;4.858;2022-08-19T00:21:32;36.65;33.66;41.22;;
71026;Laerm;62048;52.312;4.858;2022-08-19T00:21:45;37.26;34.37;40.44;;
71026;Laerm;62048;52.312;4.858;2022-08-19T00:21:56;36.09;33.96;39.61;;
71026;Laerm;62048;52.312;4.858;2022-08-19T00:22:06;35.33;33.31;37.85;;
71026;Laerm;62048;52.312;4.858;2022-08-19T00:22:18;35.38;32.74;38.69;;
71026;Laerm;62048;52.312;4.858;2022-08-19T00:22:28;34.07;31.54;37.36;;
71026;Laerm;62048;52.312;4.858;2022-08-19T00:22:39;34.38;31.89;37.90;;
71026;Laerm;62048;52.312;4.858;2022-08-19T00:22:51;34.13;31.91;37.93;;
71026;Laerm;62048;52.312;4.858;2022-08-19T00:23:01;33.73;31.80;36.42;;
71026;Laerm;62048;52.312;4.858;2022-08-19T00:23:14;33.17;31.10;37.92;;
71026;Laerm;62048;52.312;4.858;2022-08-19T00:23:25;33.18;31.24;39.55;;
71026;Laerm;62048;52.312;4.858;2022-08-19T00:23:36;32.44;29.42;35.47;;
71026;Laerm;62048;52.312;4.858;2022-08-19T00:23:46;32.62;30.60;34.82;;
71026;Laerm;62048;52.312;4.858;2022-08-19T00:23:57;32.92;30.27;36.54;;
71026;Laerm;62048;52.312;4.858;2022-08-19T00:24:09;34.15;31.36;37.28;;
71026;Laerm;62048;52.312;4.858;2022-08-19T00:24:20;33.48;31.42;40.08;;
71026;Laerm;62048;52.312;4.858;2022-08-19T00:24:30;33.55;31.04;35.83;;
71026;Laerm;62048;52.312;4.858;2022-08-19T00:24:41;33.22;31.45;36.03;;
71026;Laerm;62048;52.312;4.858;2022-08-19T00:24:53;32.24;30.29;35.71;;
71026;Laerm;62048;52.312;4.858;2022-08-19T00:25:05;33.06;31.49;34.87;;
71026;Laerm;62048;52.312;4.858;2022-08-19T00:25:16;32.30;30.34;36.29;;
71026;Laerm;62048;52.312;4.858;2022-08-19T00:25:26;32.14;30.58;36.19;;
71026;Laerm;62048;52.312;4.858;2022-08-19T00:25:37;32.02;30.36;37.39;;
71026;Laerm;62048;52.312;4.858;2022-08-19T00:25:47;32.25;30.49;38.05;;
71026;Laerm;62048;52.312;4.858;2022-08-19T00:25:57;32.95;30.34;38.13;;
71026;Laerm;62048;52.312;4.858;2022-08-19T00:26:08;32.26;30.42;34.69;;
71026;Laerm;62048;52.312;4.858;2022-08-19T00:26:19;31.69;30.03;35.07;;
71026;Laerm;62048;52.312;4.858;2022-08-19T00:26:29;31.93;30.22;33.68;;
71026;Laerm;62048;52.312;4.858;2022-08-19T00:26:40;32.25;30.56;36.72;;
71026;Laerm;62048;52.312;4.858;2022-08-19T00:26:51;31.54;29.99;39.39;;
71026;Laerm;62048;52.312;4.858;2022-08-19T00:27:01;31.91;29.77;34.49;;
71026;Laerm;62048;52.312;4.858;2022-08-19T00:27:12;32.69;30.79;39.27;;
71026;Laerm;62048;52.312;4.858;2022-08-19T00:27:22;33.15;31.09;37.07;;
71026;Laerm;62048;52.312;4.858;2022-08-19T00:27:33;33.36;31.34;36.51;;
71026;Laerm;62048;52.312;4.858;2022-08-19T00:27:44;32.77;30.57;37.29;;
71026;Laerm;62048;52.312;4.858;2022-08-19T00:27:54;32.93;30.63;35.42;;
71026;Laerm;62048;52.312;4.858;2022-08-19T00:28:05;33.00;30.53;38.07;;
71026;Laerm;62048;52.312;4.858;2022-08-19T00:28:16;33.86;32.10;35.91;;
71026;Laerm;62048;52.312;4.858;2022-08-19T00:28:26;33.62;31.25;38.18;;
71026;Laerm;62048;52.312;4.858;2022-08-19T00:28:37;34.74;31.96;39.07;;
71026;Laerm;62048;52.312;4.858;2022-08-19T00:28:47;35.49;32.93;39.51;;
71026;Laerm;62048;52.312;4.858;2022-08-19T00:28:57;36.30;33.90;38.93;;
71026;Laerm;62048;52.312;4.858;2022-08-19T00:29:08;36.35;32.92;39.97;;
71026;Laerm;62048;52.312;4.858;2022-08-19T00:29:20;36.75;33.61;40.30;;
71026;Laerm;62048;52.312;4.858;2022-08-19T00:29:31;38.10;34.70;42.04;;
71026;Laerm;62048;52.312;4.858;2022-08-19T00:29:41;37.28;32.56;40.55;;
71026;Laerm;62048;52.312;4.858;2022-08-19T00:29:51;34.74;32.54;38.92;;
71026;Laerm;62048;52.312;4.858;2022-08-19T00:30:03;36.23;33.35;42.30;;
71026;Laerm;62048;52.312;4.858;2022-08-19T00:30:14;38.88;34.40;43.84;;
71026;Laerm;62048;52.312;4.858;2022-08-19T00:30:24;38.05;34.57;43.04;;
71026;Laerm;62048;52.312;4.858;2022-08-19T00:30:36;37.92;33.57;43.27;;
71026;Laerm;62048;52.312;4.858;2022-08-19T00:30:46;34.23;32.00;38.29;;
71026;Laerm;62048;52.312;4.858;2022-08-19T00:30:57;33.58;31.40;38.32;;
71026;Laerm;62048;52.312;4.858;2022-08-19T00:31:07;32.75;30.43;36.83;;
71026;Laerm;62048;52.312;4.858;2022-08-19T00:31:18;32.25;30.36;38.06;;
71026;Laerm;62048;52.312;4.858;2022-08-19T00:31:28;31.77;30.31;34.28;;
71026;Laerm;62048;52.312;4.858;2022-08-19T00:31:39;32.67;30.15;38.91;;
71026;Laerm;62048;52.312;4.858;2022-08-19T00:31:52;32.49;30.56;37.39;;
71026;Laerm;62048;52.312;4.858;2022-08-19T00:32:04;34.64;30.95;37.53;;
71026;Laerm;62048;52.312;4.858;2022-08-19T00:32:16;33.31;31.50;39.17;;
71026;Laerm;62048;52.312;4.858;2022-08-19T00:32:27;32.24;30.22;37.42;;
71026;Laerm;62048;52.312;4.858;2022-08-19T00:32:37;32.05;30.36;34.52;;
71026;Laerm;62048;52.312;4.858;2022-08-19T00:32:47;33.67;30.87;37.51;;
71026;Laerm;62048;52.312;4.858;2022-08-19T00:32:58;34.59;32.19;36.77;;
71026;Laerm;62048;52.312;4.858;2022-08-19T00:33:11;35.30;32.90;38.82;;
71026;Laerm;62048;52.312;4.858;2022-08-19T00:33:21;35.79;33.12;39.77;;
71026;Laerm;62048;52.312;4.858;2022-08-19T00:33:32;37.96;34.49;41.89;;
71026;Laerm;62048;52.312;4.858;2022-08-19T00:33:48;35.17;32.11;37.88;;
71026;Laerm;62048;52.312;4.858;2022-08-19T00:34:02;34.98;32.52;38.19;;
71026;Laerm;62048;52.312;4.858;2022-08-19T00:34:13;35.17;33.02;39.24;;
71026;Laerm;62048;52.312;4.858;2022-08-19T00:34:24;35.45;32.50;39.02;;
71026;Laerm;62048;52.312;4.858;2022-08-19T00:34:35;34.22;32.17;36.79;;
71026;Laerm;62048;52.312;4.858;2022-08-19T00:34:45;35.22;32.55;37.71;;
71026;Laerm;62048;52.312;4.858;2022-08-19T00:34:56;34.29;31.45;38.58;;
71026;Laerm;62048;52.312;4.858;2022-08-19T00:35:07;34.71;31.13;39.13;;
71026;Laerm;62048;52.312;4.858;2022-08-19T00:35:17;33.28;30.70;38.15;;
71026;Laerm;62048;52.312;4.858;2022-08-19T00:35:28;32.45;30.32;36.12;;
71026;Laerm;62048;52.312;4.858;2022-08-19T00:35:39;32.85;30.65;37.24;;
71026;Laerm;62048;52.312;4.858;2022-08-19T00:35:49;33.14;30.69;37.38;;
71026;Laerm;62048;52.312;4.858;2022-08-19T00:36:00;33.53;30.73;36.59;;
71026;Laerm;62048;52.312;4.858;2022-08-19T00:36:11;34.47;31.16;39.67;;
71026;Laerm;62048;52.312;4.858;2022-08-19T00:36:21;32.85;30.13;36.54;;
71026;Laerm;62048;52.312;4.858;2022-08-19T00:36:32;33.61;31.28;35.72;;
71026;Laerm;62048;52.312;4.858;2022-08-19T00:36:43;34.20;31.35;37.58;;
71026;Laerm;62048;52.312;4.858;2022-08-19T00:36:54;34.94;32.63;38.30;;
71026;Laerm;62048;52.312;4.858;2022-08-19T00:37:04;35.22;32.47;37.68;;
71026;Laerm;62048;52.312;4.858;2022-08-19T00:37:14;35.21;31.82;39.81;;
71026;Laerm;62048;52.312;4.858;2022-08-19T00:37:25;32.71;29.96;36.76;;
71026;Laerm;62048;52.312;4.858;2022-08-19T00:37:38;33.43;30.62;37.60;;
71026;Laerm;62048;52.312;4.858;2022-08-19T00:37:53;32.81;30.39;39.93;;
71026;Laerm;62048;52.312;4.858;2022-08-19T00:38:04;35.19;32.94;39.85;;
71026;Laerm;62048;52.312;4.858;2022-08-19T00:38:16;33.50;30.86;38.29;;
71026;Laerm;62048;52.312;4.858;2022-08-19T00:38:26;33.98;31.06;38.05;;
71026;Laerm;62048;52.312;4.858;2022-08-19T00:38:37;34.32;32.19;36.85;;
71026;Laerm;62048;52.312;4.858;2022-08-19T00:38:50;33.90;31.25;37.90;;
71026;Laerm;62048;52.312;4.858;2022-08-19T00:39:02;34.94;32.24;39.44;;
71026;Laerm;62048;52.312;4.858;2022-08-19T00:39:13;37.09;33.94;40.22;;
71026;Laerm;62048;52.312;4.858;2022-08-19T00:39:25;41.53;37.78;45.76;;
71026;Laerm;62048;52.312;4.858;2022-08-19T00:39:35;44.95;42.15;48.37;;
71026;Laerm;62048;52.312;4.858;2022-08-19T00:39:46;44.48;39.05;47.87;;
71026;Laerm;62048;52.312;4.858;2022-08-19T00:39:56;41.03;37.06;45.34;;
71026;Laerm;62048;52.312;4.858;2022-08-19T00:40:07;37.54;34.26;42.01;;
71026;Laerm;62048;52.312;4.858;2022-08-19T00:40:17;35.72;33.11;38.59;;
71026;Laerm;62048;52.312;4.858;2022-08-19T00:40:29;34.88;32.22;37.82;;
71026;Laerm;62048;52.312;4.858;2022-08-19T00:40:42;33.51;31.08;37.29;;
71026;Laerm;62048;52.312;4.858;2022-08-19T00:40:53;33.87;30.73;37.29;;
71026;Laerm;62048;52.312;4.858;2022-08-19T00:41:04;35.56;32.57;38.39;;
71026;Laerm;62048;52.312;4.858;2022-08-19T00:41:15;35.82;32.40;38.77;;
71026;Laerm;62048;52.312;4.858;2022-08-19T00:41:27;37.96;34.86;40.88;;
71026;Laerm;62048;52.312;4.858;2022-08-19T00:41:38;35.13;32.55;38.58;;
71026;Laerm;62048;52.312;4.858;2022-08-19T00:41:49;35.20;32.80;38.37;;
71026;Laerm;62048;52.312;4.858;2022-08-19T00:41:59;34.12;31.54;36.77;;
71026;Laerm;62048;52.312;4.858;2022-08-19T00:42:10;34.36;31.79;36.53;;
71026;Laerm;62048;52.312;4.858;2022-08-19T00:42:21;34.26;32.12;38.47;;
71026;Laerm;62048;52.312;4.858;2022-08-19T00:42:31;34.96;32.65;39.13;;
71026;Laerm;62048;52.312;4.858;2022-08-19T00:42:42;34.84;32.60;38.80;;
71026;Laerm;62048;52.312;4.858;2022-08-19T00:42:53;35.09;32.94;38.25;;
71026;Laerm;62048;52.312;4.858;2022-08-19T00:43:09;34.97;32.27;37.66;;
71026;Laerm;62048;52.312;4.858;2022-08-19T00:43:21;35.75;32.20;40.62;;
71026;Laerm;62048;52.312;4.858;2022-08-19T00:43:32;35.91;33.82;38.96;;
71026;Laerm;62048;52.312;4.858;2022-08-19T00:43:42;34.91;32.34;38.84;;
71026;Laerm;62048;52.312;4.858;2022-08-19T00:43:59;34.16;32.00;36.97;;
71026;Laerm;62048;52.312;4.858;2022-08-19T00:44:12;34.88;31.65;39.11;;
71026;Laerm;62048;52.312;4.858;2022-08-19T00:44:25;34.10;32.01;37.44;;
71026;Laerm;62048;52.312;4.858;2022-08-19T00:44:36;34.29;31.23;37.73;;
71026;Laerm;62048;52.312;4.858;2022-08-19T00:44:46;34.48;31.74;38.49;;
71026;Laerm;62048;52.312;4.858;2022-08-19T00:45:00;34.29;31.70;38.14;;
71026;Laerm;62048;52.312;4.858;2022-08-19T00:45:15;34.55;32.21;37.53;;
71026;Laerm;62048;52.312;4.858;2022-08-19T00:45:27;34.28;31.90;37.46;;
71026;Laerm;62048;52.312;4.858;2022-08-19T00:45:40;33.15;30.66;37.83;;
71026;Laerm;62048;52.312;4.858;2022-08-19T00:45:54;33.18;30.57;37.69;;
71026;Laerm;62048;52.312;4.858;2022-08-19T00:46:04;35.61;32.51;40.76;;
71026;Laerm;62048;52.312;4.858;2022-08-19T00:46:15;34.34;31.84;36.49;;
71026;Laerm;62048;52.312;4.858;2022-08-19T00:46:25;34.94;32.29;39.53;;
71026;Laerm;62048;52.312;4.858;2022-08-19T00:46:36;35.22;30.58;38.99;;
71026;Laerm;62048;52.312;4.858;2022-08-19T00:46:50;33.49;31.35;36.25;;
71026;Laerm;62048;52.312;4.858;2022-08-19T00:47:02;34.16;31.04;37.79;;
71026;Laerm;62048;52.312;4.858;2022-08-19T00:47:12;32.92;30.51;39.19;;
71026;Laerm;62048;52.312;4.858;2022-08-19T00:47:23;31.95;30.21;33.74;;
71026;Laerm;62048;52.312;4.858;2022-08-19T00:47:33;34.14;29.91;38.92;;
71026;Laerm;62048;52.312;4.858;2022-08-19T00:47:44;33.92;31.15;37.40;;
71026;Laerm;62048;52.312;4.858;2022-08-19T00:47:55;35.47;32.05;41.91;;
71026;Laerm;62048;52.312;4.858;2022-08-19T00:48:05;34.21;31.75;39.72;;
71026;Laerm;62048;52.312;4.858;2022-08-19T00:48:16;33.53;31.16;35.68;;
71026;Laerm;62048;52.312;4.858;2022-08-19T00:48:27;34.88;32.11;37.94;;
71026;Laerm;62048;52.312;4.858;2022-08-19T00:48:37;35.43;33.09;40.62;;
71026;Laerm;62048;52.312;4.858;2022-08-19T00:48:47;37.02;34.28;40.31;;
71026;Laerm;62048;52.312;4.858;2022-08-19T00:48:58;36.04;32.91;39.92;;
71026;Laerm;62048;52.312;4.858;2022-08-19T00:49:12;35.79;32.27;38.60;;
71026;Laerm;62048;52.312;4.858;2022-08-19T00:49:29;36.04;32.85;42.93;;
71026;Laerm;62048;52.312;4.858;2022-08-19T00:49:45;35.34;33.32;38.69;;
71026;Laerm;62048;52.312;4.858;2022-08-19T00:50:00;35.01;32.03;40.97;;
71026;Laerm;62048;52.312;4.858;2022-08-19T00:50:11;36.48;33.30;39.99;;
71026;Laerm;62048;52.312;4.858;2022-08-19T00:50:23;35.30;32.61;38.20;;
71026;Laerm;62048;52.312;4.858;2022-08-19T00:50:33;37.05;33.92;39.97;;
71026;Laerm;62048;52.312;4.858;2022-08-19T00:50:44;36.32;33.64;38.52;;
71026;Laerm;62048;52.312;4.858;2022-08-19T00:50:55;36.84;33.98;41.32;;
71026;Laerm;62048;52.312;4.858;2022-08-19T00:51:05;37.04;34.30;43.24;;
71026;Laerm;62048;52.312;4.858;2022-08-19T00:51:16;36.09;33.41;39.72;;
71026;Laerm;62048;52.312;4.858;2022-08-19T00:51:27;36.41;34.26;39.63;;
71026;Laerm;62048;52.312;4.858;2022-08-19T00:51:39;35.88;33.46;40.10;;
71026;Laerm;62048;52.312;4.858;2022-08-19T00:51:50;36.11;33.10;39.38;;
71026;Laerm;62048;52.312;4.858;2022-08-19T00:52:06;35.64;32.59;39.62;;
71026;Laerm;62048;52.312;4.858;2022-08-19T00:52:29;37.63;33.72;42.44;;
71026;Laerm;62048;52.312;4.858;2022-08-19T00:52:43;38.55;34.77;42.22;;
71026;Laerm;62048;52.312;4.858;2022-08-19T00:52:55;37.43;33.65;41.61;;
71026;Laerm;62048;52.312;4.858;2022-08-19T00:53:05;37.55;34.42;41.17;;
71026;Laerm;62048;52.312;4.858;2022-08-19T00:53:17;37.68;35.45;41.31;;
71026;Laerm;62048;52.312;4.858;2022-08-19T00:53:29;38.49;35.07;43.24;;
71026;Laerm;62048;52.312;4.858;2022-08-19T00:53:41;37.09;33.62;40.83;;
71026;Laerm;62048;52.312;4.858;2022-08-19T00:53:51;37.41;34.61;40.58;;
71026;Laerm;62048;52.312;4.858;2022-08-19T00:54:02;36.29;32.72;41.32;;
71026;Laerm;62048;52.312;4.858;2022-08-19T00:54:12;36.21;33.91;38.43;;
71026;Laerm;62048;52.312;4.858;2022-08-19T00:54:22;36.95;33.48;42.47;;
71026;Laerm;62048;52.312;4.858;2022-08-19T00:54:33;34.65;31.31;37.10;;
71026;Laerm;62048;52.312;4.858;2022-08-19T00:54:43;35.94;33.68;41.03;;
71026;Laerm;62048;52.312;4.858;2022-08-19T00:54:55;34.10;31.97;37.33;;
71026;Laerm;62048;52.312;4.858;2022-08-19T00:55:07;35.56;32.70;41.18;;
71026;Laerm;62048;52.312;4.858;2022-08-19T00:55:21;35.39;31.83;41.89;;
71026;Laerm;62048;52.312;4.858;2022-08-19T00:55:32;35.97;32.89;39.18;;
71026;Laerm;62048;52.312;4.858;2022-08-19T00:55:44;36.35;33.11;39.79;;
71026;Laerm;62048;52.312;4.858;2022-08-19T00:55:56;35.62;32.04;40.27;;
71026;Laerm;62048;52.312;4.858;2022-08-19T00:56:08;33.82;31.34;38.38;;
71026;Laerm;62048;52.312;4.858;2022-08-19T00:56:18;34.62;32.36;37.50;;
71026;Laerm;62048;52.312;4.858;2022-08-19T00:56:28;36.79;33.46;40.33;;
71026;Laerm;62048;52.312;4.858;2022-08-19T00:56:40;36.33;31.91;41.57;;
71026;Laerm;62048;52.312;4.858;2022-08-19T00:56:51;34.15;31.84;37.70;;
71026;Laerm;62048;52.312;4.858;2022-08-19T00:57:04;35.71;32.55;39.42;;
71026;Laerm;62048;52.312;4.858;2022-08-19T00:57:17;34.52;31.84;39.14;;
71026;Laerm;62048;52.312;4.858;2022-08-19T00:57:30;35.94;32.81;39.46;;
71026;Laerm;62048;52.312;4.858;2022-08-19T00:57:44;36.46;32.95;40.15;;
71026;Laerm;62048;52.312;4.858;2022-08-19T00:57:58;37.70;34.82;41.44;;
71026;Laerm;62048;52.312;4.858;2022-08-19T00:58:11;37.20;34.45;41.86;;
71026;Laerm;62048;52.312;4.858;2022-08-19T00:58:24;36.71;34.15;40.93;;
71026;Laerm;62048;52.312;4.858;2022-08-19T00:58:34;36.31;33.51;39.21;;
71026;Laerm;62048;52.312;4.858;2022-08-19T00:58:45;37.06;33.26;42.13;;
71026;Laerm;62048;52.312;4.858;2022-08-19T00:58:56;35.98;32.82;39.71;;
71026;Laerm;62048;52.312;4.858;2022-08-19T00:59:06;38.31;33.96;43.84;;
71026;Laerm;62048;52.312;4.858;2022-08-19T00:59:19;36.31;33.07;40.33;;
71026;Laerm;62048;52.312;4.858;2022-08-19T00:59:29;37.59;34.06;42.71;;
71026;Laerm;62048;52.312;4.858;2022-08-19T00:59:40;39.15;35.30;42.39;;
71026;Laerm;62048;52.312;4.858;2022-08-19T00:59:52;38.06;33.90;41.14;;
71026;Laerm;62048;52.312;4.858;2022-08-19T01:00:06;39.83;34.67;43.78;;
71026;Laerm;62048;52.312;4.858;2022-08-19T01:00:18;41.34;33.91;47.06;;
71026;Laerm;62048;52.312;4.858;2022-08-19T01:00:29;39.25;35.91;45.47;;
71026;Laerm;62048;52.312;4.858;2022-08-19T01:00:40;37.50;34.88;39.77;;
71026;Laerm;62048;52.312;4.858;2022-08-19T01:00:51;38.89;35.60;44.04;;
71026;Laerm;62048;52.312;4.858;2022-08-19T01:01:02;38.01;34.78;41.45;;
71026;Laerm;62048;52.312;4.858;2022-08-19T01:01:13;36.65;33.65;41.87;;
71026;Laerm;62048;52.312;4.858;2022-08-19T01:01:24;36.21;32.28;40.19;;
71026;Laerm;62048;52.312;4.858;2022-08-19T01:01:35;36.35;33.09;41.76;;
71026;Laerm;62048;52.312;4.858;2022-08-19T01:01:46;36.87;32.93;44.03;;
71026;Laerm;62048;52.312;4.858;2022-08-19T01:01:57;35.26;32.44;38.32;;
71026;Laerm;62048;52.312;4.858;2022-08-19T01:02:07;37.41;32.60;43.24;;
71026;Laerm;62048;52.312;4.858;2022-08-19T01:02:18;36.81;33.48;42.09;;
71026;Laerm;62048;52.312;4.858;2022-08-19T01:02:29;37.59;33.10;42.95;;
71026;Laerm;62048;52.312;4.858;2022-08-19T01:02:40;36.00;31.73;45.59;;